Time;durP1;ratioP1;P1;durP2;ratioP2;P2;SDS_P1;SDS_P2;PMS_P1;PMS_P2;Temp;Humidity;BMP_temperature;BMP_pressure;BME280_temperature;BME280_humidity;BME280_pressure;Samples;Min_cycle;Max_cycle;Signal;HPM_P1;HPM_P2
2022/04/16 00:00:46;;;;;;;2.63;2.53;;;18.60;45.10;;;;;;5059898;28;20214;-55
2022/04/16 00:03:13;;;;;;;3.60;3.40;;;18.60;45.00;;;;;;5056314;28;20532;-56
2022/04/16 00:05:39;;;;;;;3.30;3.10;;;18.60;45.00;;;;;;5062329;28;20428;-55
2022/04/16 00:08:07;;;;;;;2.97;2.83;;;18.60;45.00;;;;;;5061464;28;20430;-55
2022/04/16 00:10:35;;;;;;;2.93;2.83;;;18.60;45.00;;;;;;5061152;28;20283;-56
2022/04/16 00:13:01;;;;;;;3.23;3.03;;;18.60;45.00;;;;;;5063939;28;20417;-55
2022/04/16 00:15:27;;;;;;;3.00;2.90;;;18.60;45.00;;;;;;5066251;28;20471;-56
2022/04/16 00:17:53;;;;;;;3.20;3.10;;;18.60;45.00;;;;;;5067993;28;20237;-55
2022/04/16 00:20:19;;;;;;;3.00;2.90;;;18.60;45.00;;;;;;5063665;28;20634;-55
2022/04/16 00:22:44;;;;;;;3.67;3.30;;;18.60;45.00;;;;;;5067900;28;20450;-55
2022/04/16 00:25:11;;;;;;;3.13;2.93;;;18.60;45.10;;;;;;5058209;28;20219;-56
2022/04/16 00:27:37;;;;;;;3.23;3.03;;;18.60;45.00;;;;;;5063373;28;20271;-56
2022/04/16 00:30:03;;;;;;;2.67;2.57;;;18.60;45.00;;;;;;5062949;28;20443;-55
2022/04/16 00:32:29;;;;;;;3.17;2.97;;;18.60;45.10;;;;;;5059516;28;21112;-55
2022/04/16 00:34:54;;;;;;;3.13;2.93;;;18.60;45.10;;;;;;5060259;28;20213;-55
2022/04/16 00:37:20;;;;;;;2.60;2.50;;;18.60;45.00;;;;;;5065250;28;20230;-56
2022/04/16 00:39:46;;;;;;;3.57;3.37;;;18.60;45.00;;;;;;5066741;28;20582;-55
2022/04/16 00:42:12;;;;;;;3.00;2.80;;;18.60;45.10;;;;;;5064080;28;20925;-55
2022/04/16 00:44:37;;;;;;;3.23;3.03;;;18.60;45.00;;;;;;5062698;28;20705;-55
2022/04/16 00:47:04;;;;;;;3.47;3.27;;;18.60;45.00;;;;;;5058528;28;20702;-56
2022/04/16 00:49:30;;;;;;;3.50;3.33;;;18.60;45.10;;;;;;5061546;28;20305;-55
2022/04/16 00:51:56;;;;;;;3.10;2.90;;;18.60;45.00;;;;;;5062892;28;20501;-56
2022/04/16 00:54:22;;;;;;;2.73;2.63;;;18.60;45.10;;;;;;5059017;28;20226;-55
2022/04/16 00:56:48;;;;;;;2.90;2.70;;;18.60;45.10;;;;;;5066533;28;20439;-56
2022/04/16 00:59:13;;;;;;;3.03;2.83;;;18.60;45.00;;;;;;5065016;28;20229;-56
2022/04/16 01:01:39;;;;;;;2.50;2.40;;;18.60;45.00;;;;;;5061461;28;20233;-56
2022/04/16 01:04:05;;;;;;;2.70;2.50;;;18.60;45.10;;;;;;5060315;28;20218;-55
2022/04/16 01:06:42;;;;;;;2.70;2.60;;;18.60;45.10;;;;;;5062831;28;20249;-55
2022/04/16 01:09:07;;;;;;;2.83;2.73;;;18.60;45.10;;;;;;5060201;28;20683;-56
2022/04/16 01:11:33;;;;;;;3.03;2.90;;;18.60;45.10;;;;;;5060660;28;20550;-56
2022/04/16 01:14:01;;;;;;;3.43;3.23;;;18.60;45.10;;;;;;5058701;28;20615;-56
2022/04/16 01:16:29;;;;;;;3.03;2.90;;;18.60;45.10;;;;;;5062325;28;20227;-56
2022/04/16 01:18:55;;;;;;;2.80;2.70;;;18.60;45.10;;;;;;5060444;28;20999;-55
2022/04/16 01:21:21;;;;;;;3.17;2.97;;;18.60;45.10;;;;;;5059960;28;20460;-55
2022/04/16 01:23:46;;;;;;;3.00;2.80;;;18.60;45.00;;;;;;5061055;28;20619;-55
2022/04/16 01:26:13;;;;;;;3.17;3.00;;;18.60;45.00;;;;;;5060003;28;20230;-55
2022/04/16 01:28:40;;;;;;;3.03;2.93;;;18.60;45.10;;;;;;5065974;28;20226;-56
2022/04/16 01:31:06;;;;;;;3.10;2.90;;;18.60;45.10;;;;;;5056449;28;20452;-55
2022/04/16 01:33:31;;;;;;;3.70;3.50;;;18.60;45.10;;;;;;5062216;28;20432;-55
2022/04/16 01:35:57;;;;;;;2.70;2.60;;;18.60;45.10;;;;;;5064514;28;20256;-58
2022/04/16 01:38:25;;;;;;;3.00;2.80;;;18.60;45.10;;;;;;5063480;28;20265;-59
2022/04/16 01:40:54;;;;;;;2.40;2.30;;;18.60;45.10;;;;;;5058027;28;20417;-58
2022/04/16 01:43:20;;;;;;;3.00;2.80;;;18.60;45.10;;;;;;5063218;28;20470;-56
2022/04/16 01:45:49;;;;;;;4.10;2.80;;;18.60;45.10;;;;;;5058627;28;20815;-56
2022/04/16 01:48:18;;;;;;;3.00;2.80;;;18.60;45.10;;;;;;5042096;28;20229;-58
2022/04/16 01:50:48;;;;;;;2.67;2.57;;;18.60;45.10;;;;;;5063343;28;20463;-57
2022/04/16 01:53:15;;;;;;;3.20;3.00;;;18.60;45.10;;;;;;5063071;28;20501;-56
2022/04/16 01:55:40;;;;;;;3.23;3.03;;;18.60;45.10;;;;;;5063892;28;20442;-56
2022/04/16 01:58:06;;;;;;;2.63;2.53;;;18.60;45.10;;;;;;5058821;28;20442;-56
2022/04/16 02:00:33;;;;;;;2.37;2.27;;;18.60;45.10;;;;;;5061040;28;20241;-56
2022/04/16 02:02:59;;;;;;;2.80;2.60;;;18.60;45.10;;;;;;5057108;28;20232;-56
2022/04/16 02:05:25;;;;;;;2.80;2.70;;;18.60;45.10;;;;;;5063768;28;20454;-57
2022/04/16 02:07:51;;;;;;;3.00;2.80;;;18.60;45.10;;;;;;5055727;28;20897;-56
2022/04/16 02:10:17;;;;;;;2.87;2.67;;;18.60;45.10;;;;;;5061041;28;20218;-56
2022/04/16 02:12:43;;;;;;;3.00;2.80;;;18.60;45.20;;;;;;5062088;28;20225;-56
2022/04/16 02:15:10;;;;;;;2.83;2.73;;;18.60;45.10;;;;;;5058415;28;20522;-56
2022/04/16 02:17:36;;;;;;;3.30;3.10;;;18.60;45.10;;;;;;5058473;28;20448;-56
2022/04/16 02:20:06;;;;;;;2.77;2.67;;;18.60;45.20;;;;;;5061145;28;20462;-57
2022/04/16 02:22:43;;;;;;;2.93;2.80;;;18.60;45.10;;;;;;5059111;28;20456;-57
2022/04/16 02:25:10;;;;;;;3.03;2.83;;;18.60;45.20;;;;;;5057783;28;20461;-56
2022/04/16 02:27:36;;;;;;;2.73;2.63;;;18.60;45.20;;;;;;5061492;28;20468;-56
2022/04/16 02:30:10;;;;;;;3.00;2.90;;;18.60;45.20;;;;;;5056846;28;20480;-56
2022/04/16 02:32:41;;;;;;;3.20;3.00;;;18.60;45.20;;;;;;5057936;28;20311;-56
2022/04/16 02:35:07;;;;;;;3.00;2.90;;;18.60;45.20;;;;;;5059835;28;20464;-56
2022/04/16 02:37:33;;;;;;;3.10;2.90;;;18.60;45.20;;;;;;5044262;28;20786;-56
2022/04/16 02:39:58;;;;;;;2.70;2.60;;;18.60;45.20;;;;;;5057917;28;20458;-56
2022/04/16 02:42:24;;;;;;;2.53;2.43;;;18.60;45.20;;;;;;5048881;28;20304;-57
2022/04/16 02:47:33;;;;;;;3.00;2.80;;;18.60;45.20;;;;;;5063424;28;20267;-56
2022/04/16 02:49:59;;;;;;;2.87;2.73;;;18.60;45.10;;;;;;5061672;28;20418;-56
2022/04/16 02:52:25;;;;;;;3.27;3.07;;;18.60;45.20;;;;;;5063147;28;20266;-56
2022/04/16 02:54:54;;;;;;;3.10;2.90;;;18.60;45.10;;;;;;5058234;28;20914;-56
2022/04/16 02:57:19;;;;;;;2.40;2.30;;;18.60;45.20;;;;;;5060980;28;20275;-57
2022/04/16 02:59:46;;;;;;;2.73;2.63;;;18.60;45.10;;;;;;5058853;28;21375;-56
2022/04/16 03:02:13;;;;;;;2.60;2.50;;;18.60;45.20;;;;;;5054767;28;20744;-56
2022/04/16 03:04:38;;;;;;;3.30;3.10;;;18.60;45.30;;;;;;5059441;28;20426;-56
2022/04/16 03:07:04;;;;;;;3.03;2.83;;;18.60;45.20;;;;;;5057605;28;20429;-56
2022/04/16 03:09:30;;;;;;;2.50;2.40;;;18.60;45.20;;;;;;5054291;28;20533;-57
2022/04/16 03:11:56;;;;;;;2.43;2.33;;;18.60;45.20;;;;;;5064454;28;20229;-56
2022/04/16 03:19:50;;;;;;;3.30;3.10;;;18.60;45.20;;;;;;5063895;28;20452;-57
2022/04/16 03:22:16;;;;;;;3.00;2.80;;;18.60;45.20;;;;;;5055362;28;20454;-56
2022/04/16 03:24:42;;;;;;;2.57;2.37;;;18.60;45.20;;;;;;5055946;28;20230;-57
2022/04/16 03:27:08;;;;;;;2.70;2.60;;;18.60;45.20;;;;;;5060344;28;20226;-55
2022/04/16 03:29:37;;;;;;;3.43;3.23;;;18.60;45.10;;;;;;5063964;28;20271;-56
2022/04/16 03:32:03;;;;;;;2.67;2.57;;;18.60;45.20;;;;;;5060271;28;20445;-57
2022/04/16 03:34:29;;;;;;;2.90;2.80;;;18.60;45.10;;;;;;5060310;28;20939;-56
2022/04/16 03:36:55;;;;;;;2.87;2.67;;;18.60;45.10;;;;;;5031276;28;20496;-57
2022/04/16 03:39:21;;;;;;;2.50;2.40;;;18.60;45.20;;;;;;5059183;28;20237;-56
2022/04/16 03:41:47;;;;;;;2.63;2.53;;;18.60;45.20;;;;;;5064623;28;20221;-57
2022/04/16 03:44:13;;;;;;;2.73;2.63;;;18.60;45.10;;;;;;5057153;28;20768;-56
2022/04/16 03:46:38;;;;;;;2.60;2.50;;;18.60;45.10;;;;;;5065599;28;20317;-56
2022/04/16 03:49:04;;;;;;;3.10;2.90;;;18.60;45.10;;;;;;5064706;28;20225;-57
2022/04/16 03:51:29;;;;;;;2.83;2.63;;;18.60;45.10;;;;;;5065148;28;20580;-56
2022/04/16 03:53:55;;;;;;;2.63;2.53;;;18.60;45.10;;;;;;5059528;28;20209;-57
2022/04/16 04:02:06;;;;;;;2.67;2.57;;;18.50;45.10;;;;;;4989670;28;20435;-56
2022/04/16 04:04:32;;;;;;;2.33;2.23;;;18.50;45.20;;;;;;5049092;28;20425;-56
2022/04/16 04:06:57;;;;;;;2.87;2.77;;;18.50;45.10;;;;;;5061969;28;20221;-57
2022/04/16 04:09:23;;;;;;;3.40;3.20;;;18.50;45.10;;;;;;5061405;28;20302;-56
2022/04/16 04:11:48;;;;;;;2.27;2.17;;;18.50;45.10;;;;;;5064992;28;20225;-56
2022/04/16 04:14:14;;;;;;;2.50;2.40;;;18.50;45.00;;;;;;5063464;28;20233;-56
2022/04/16 04:16:39;;;;;;;2.97;2.87;;;18.50;45.10;;;;;;5059942;28;20215;-56
2022/04/16 04:19:05;;;;;;;2.60;2.50;;;18.50;45.10;;;;;;5066142;28;20234;-56
2022/04/16 04:21:30;;;;;;;2.80;2.70;;;18.50;45.10;;;;;;5059996;28;20682;-57
2022/04/16 04:23:56;;;;;;;3.20;2.90;;;18.50;45.10;;;;;;5068125;28;20709;-56
2022/04/16 04:26:22;;;;;;;3.10;2.90;;;18.50;45.10;;;;;;5064268;28;20566;-56
2022/04/16 04:28:47;;;;;;;2.67;2.57;;;18.50;45.10;;;;;;5065576;28;20416;-57
2022/04/16 04:31:13;;;;;;;3.07;2.87;;;18.50;45.10;;;;;;5061726;28;20663;-56
2022/04/16 04:33:38;;;;;;;2.97;2.80;;;18.50;45.10;;;;;;5065491;28;20667;-56
2022/04/16 04:36:04;;;;;;;2.70;2.60;;;18.50;45.10;;;;;;5063080;28;20735;-56
2022/04/16 04:38:30;;;;;;;3.03;2.90;;;18.50;45.10;;;;;;5057583;28;20242;-56
2022/04/16 04:40:55;;;;;;;2.60;2.50;;;18.50;45.10;;;;;;5063954;28;20213;-56
2022/04/16 04:43:21;;;;;;;3.00;2.80;;;18.50;45.00;;;;;;5057945;28;20350;-56
2022/04/16 04:45:48;;;;;;;2.90;2.80;;;18.50;45.10;;;;;;5061312;28;20226;-57
2022/04/16 04:48:13;;;;;;;2.87;2.77;;;18.50;45.10;;;;;;5061847;28;20301;-56
2022/04/16 04:50:39;;;;;;;2.87;2.60;;;18.50;45.10;;;;;;5066427;28;20832;-56
2022/04/16 04:53:04;;;;;;;2.60;2.50;;;18.50;45.10;;;;;;5057818;28;20218;-56
2022/04/16 04:55:30;;;;;;;3.13;2.93;;;18.50;45.10;;;;;;5059014;28;20229;-56
2022/04/16 04:57:55;;;;;;;2.80;2.60;;;18.50;45.10;;;;;;5063462;28;20226;-56
2022/04/16 05:00:21;;;;;;;2.77;2.67;;;18.50;45.10;;;;;;5058315;28;20713;-56
2022/04/16 05:02:47;;;;;;;2.80;2.70;;;18.50;45.00;;;;;;5063077;28;20221;-57
2022/04/16 05:05:15;;;;;;;3.00;2.90;;;18.50;45.10;;;;;;5066521;28;20301;-56
2022/04/16 05:07:40;;;;;;;2.60;2.50;;;18.50;45.00;;;;;;5064060;28;20438;-57
2022/04/16 05:10:06;;;;;;;2.60;2.40;;;18.50;45.10;;;;;;5062369;28;20931;-56
2022/04/16 05:12:32;;;;;;;2.30;2.20;;;18.50;45.00;;;;;;5066780;28;20234;-57
2022/04/16 05:14:58;;;;;;;2.80;2.60;;;18.50;45.00;;;;;;5054531;28;20435;-57
2022/04/16 05:17:24;;;;;;;2.70;2.60;;;18.50;44.90;;;;;;5060272;28;20241;-56
2022/04/16 05:19:49;;;;;;;2.63;2.53;;;18.60;45.00;;;;;;5063361;28;20248;-56
2022/04/16 05:22:15;;;;;;;2.97;2.83;;;18.60;45.00;;;;;;5061349;28;20233;-56
2022/04/16 05:24:40;;;;;;;3.00;2.80;;;18.60;44.90;;;;;;5066939;28;20678;-56
2022/04/16 05:27:09;;;;;;;3.20;3.00;;;18.60;44.90;;;;;;5063254;28;21474;-56
2022/04/16 05:29:48;;;;;;;3.00;2.80;;;18.60;44.90;;;;;;5060514;28;20226;-57
2022/04/16 05:32:16;;;;;;;3.07;2.87;;;18.60;44.90;;;;;;5061496;28;20430;-56
2022/04/16 05:34:42;;;;;;;2.97;2.83;;;18.60;44.80;;;;;;5064673;28;20446;-56
2022/04/16 05:37:07;;;;;;;2.57;2.47;;;18.60;44.90;;;;;;5058867;28;20905;-57
2022/04/16 05:39:33;;;;;;;3.00;2.83;;;18.60;44.80;;;;;;5062649;28;20629;-57
2022/04/16 05:41:58;;;;;;;3.30;3.10;;;18.60;44.80;;;;;;5057467;28;20268;-56
2022/04/16 05:44:24;;;;;;;2.70;2.60;;;18.60;44.80;;;;;;5063932;28;20607;-57
2022/04/16 05:46:49;;;;;;;2.60;2.50;;;18.60;44.80;;;;;;5064709;28;20247;-56
2022/04/16 05:49:15;;;;;;;2.67;2.57;;;18.60;44.80;;;;;;5058549;28;20234;-56
2022/04/16 05:51:41;;;;;;;2.33;2.23;;;18.60;44.70;;;;;;5044603;28;20227;-56
2022/04/16 05:54:06;;;;;;;2.27;2.17;;;18.60;44.80;;;;;;5061196;28;20218;-56
2022/04/16 05:56:33;;;;;;;2.73;2.63;;;18.60;44.70;;;;;;5061103;28;20313;-57
2022/04/16 05:59:00;;;;;;;2.73;2.63;;;18.60;44.70;;;;;;5057864;28;20225;-56
2022/04/16 06:01:26;;;;;;;3.10;2.90;;;18.60;44.70;;;;;;5061243;28;20577;-57
2022/04/16 06:03:52;;;;;;;2.33;2.23;;;18.60;44.70;;;;;;5061950;28;20544;-56
2022/04/16 06:06:17;;;;;;;2.30;2.20;;;18.60;44.60;;;;;;5063233;28;20225;-58
2022/04/16 06:08:43;;;;;;;3.20;3.00;;;18.70;44.80;;;;;;5063954;28;20636;-56
2022/04/16 06:11:11;;;;;;;2.87;2.67;;;18.70;44.80;;;;;;5058701;28;20301;-56
2022/04/16 06:13:36;;;;;;;2.40;2.30;;;18.70;44.80;;;;;;5058826;28;20233;-56
2022/04/16 06:16:02;;;;;;;2.60;2.50;;;18.60;44.70;;;;;;5059938;28;20468;-57
2022/04/16 06:18:28;;;;;;;2.77;2.57;;;18.70;44.80;;;;;;5065278;28;20238;-57
2022/04/16 06:20:56;;;;;;;2.40;2.30;;;18.70;44.80;;;;;;5058623;28;20256;-57
2022/04/16 06:23:21;;;;;;;2.93;2.83;;;18.70;44.80;;;;;;5058414;28;20223;-56
2022/04/16 06:25:47;;;;;;;2.40;2.30;;;18.60;44.70;;;;;;5064087;28;20533;-56
2022/04/16 06:28:13;;;;;;;2.53;2.43;;;18.70;44.70;;;;;;5063787;28;20222;-56
2022/04/16 06:30:38;;;;;;;2.37;2.27;;;18.70;44.70;;;;;;5062540;28;20624;-57
2022/04/16 06:33:04;;;;;;;3.37;3.17;;;18.70;44.70;;;;;;5064176;28;20241;-56
2022/04/16 06:35:30;;;;;;;2.87;2.67;;;18.70;44.70;;;;;;5059498;28;20283;-57
2022/04/16 06:37:55;;;;;;;2.77;2.57;;;18.70;44.70;;;;;;5061993;28;20264;-57
2022/04/16 06:40:21;;;;;;;2.80;2.70;;;18.70;44.80;;;;;;5063088;28;20217;-56
2022/04/16 06:42:47;;;;;;;2.30;2.20;;;18.70;44.70;;;;;;5058602;28;20305;-57
2022/04/16 06:45:13;;;;;;;2.70;2.60;;;18.70;44.70;;;;;;5058725;28;20648;-56
2022/04/16 06:47:39;;;;;;;2.50;2.40;;;18.70;44.70;;;;;;5062433;28;20421;-57
2022/04/16 06:50:06;;;;;;;2.87;2.57;;;18.70;44.70;;;;;;5060311;28;20440;-56
2022/04/16 06:52:32;;;;;;;3.40;3.20;;;18.70;44.70;;;;;;5056432;28;21043;-56
2022/04/16 06:54:58;;;;;;;2.70;2.60;;;18.70;44.70;;;;;;5060477;28;20420;-56
2022/04/16 06:57:25;;;;;;;2.67;2.57;;;18.70;45.50;;;;;;5057904;28;20691;-57
2022/04/16 06:59:50;;;;;;;2.77;2.57;;;18.70;44.70;;;;;;5060600;28;20937;-56
2022/04/16 07:02:16;;;;;;;2.77;2.67;;;18.70;44.70;;;;;;5059753;28;20422;-57
2022/04/16 07:04:42;;;;;;;3.60;2.73;;;18.70;44.70;;;;;;5062153;28;20222;-56
2022/04/16 07:07:10;;;;;;;2.50;2.40;;;18.70;44.70;;;;;;5058931;28;20467;-56
2022/04/16 07:09:39;;;;;;;2.83;2.73;;;18.70;44.70;;;;;;5057549;28;20233;-57
2022/04/16 07:12:12;;;;;;;3.43;3.23;;;18.70;44.80;;;;;;5060852;28;20434;-56
2022/04/16 07:14:39;;;;;;;2.80;2.70;;;18.70;44.70;;;;;;5056657;28;20455;-57
2022/04/16 07:17:07;;;;;;;2.90;2.80;;;18.70;44.60;;;;;;5060686;28;20429;-57
2022/04/16 07:19:34;;;;;;;2.60;2.40;;;18.70;44.70;;;;;;5058609;28;20441;-57
2022/04/16 07:22:00;;;;;;;2.63;2.53;;;18.70;44.70;;;;;;5052871;28;20442;-57
2022/04/16 07:24:26;;;;;;;2.60;2.50;;;18.70;44.70;;;;;;5059555;28;20468;-56
2022/04/16 07:26:55;;;;;;;2.93;2.73;;;18.70;44.60;;;;;;5059854;28;20306;-57
2022/04/16 07:29:22;;;;;;;2.77;2.60;;;18.70;44.60;;;;;;5058897;28;20229;-57
2022/04/16 07:31:48;;;;;;;2.33;2.23;;;18.70;44.60;;;;;;5061654;28;20428;-57
2022/04/16 07:34:13;;;;;;;2.80;2.70;;;18.70;44.60;;;;;;5062376;28;20421;-56
2022/04/16 07:36:40;;;;;;;3.00;2.90;;;18.70;44.60;;;;;;5061300;28;20226;-56
2022/04/16 07:39:05;;;;;;;2.40;2.30;;;18.70;44.60;;;;;;5060756;28;20237;-56
2022/04/16 07:41:31;;;;;;;2.90;2.70;;;18.70;44.70;;;;;;5061203;28;20444;-57
2022/04/16 07:44:02;;;;;;;2.50;2.40;;;18.70;44.70;;;;;;5060105;28;20233;-56
2022/04/16 07:46:28;;;;;;;2.57;2.47;;;18.70;44.60;;;;;;5058806;28;20643;-56
2022/04/16 07:48:54;;;;;;;2.47;2.37;;;18.70;44.60;;;;;;5060177;28;20516;-56
2022/04/16 07:51:19;;;;;;;2.90;2.70;;;18.70;44.70;;;;;;5052537;28;20600;-57
2022/04/16 07:53:45;;;;;;;2.50;2.40;;;18.70;44.60;;;;;;5062874;28;20270;-56
2022/04/16 07:56:10;;;;;;;2.70;2.60;;;18.70;44.60;;;;;;5062735;28;20268;-56
2022/04/16 07:58:36;;;;;;;2.30;2.20;;;18.70;44.60;;;;;;5065285;28;20240;-56
2022/04/16 08:01:01;;;;;;;2.50;2.40;;;18.70;44.60;;;;;;5062546;28;20573;-57
2022/04/16 08:03:27;;;;;;;2.80;2.70;;;18.70;44.60;;;;;;5059891;28;20895;-56
2022/04/16 08:05:52;;;;;;;2.20;2.10;;;18.70;44.60;;;;;;5060311;28;20225;-57
2022/04/16 08:08:18;;;;;;;2.30;2.20;;;18.70;44.60;;;;;;5059462;28;20244;-56
2022/04/16 08:10:43;;;;;;;2.80;2.70;;;18.70;44.60;;;;;;5062810;28;20221;-56
2022/04/16 08:13:09;;;;;;;2.30;2.20;;;18.70;44.60;;;;;;5056239;28;20216;-56
2022/04/16 08:15:35;;;;;;;2.60;2.50;;;18.70;44.90;;;;;;5061408;28;20226;-56
2022/04/16 08:18:01;;;;;;;2.60;2.50;;;18.70;44.60;;;;;;5061008;28;20276;-56
2022/04/16 08:20:27;;;;;;;2.77;2.67;;;18.70;44.60;;;;;;5058561;28;20226;-56
2022/04/16 08:22:52;;;;;;;3.07;2.87;;;18.70;44.60;;;;;;5057038;28;20429;-56
2022/04/16 08:27:48;;;;;;;2.53;2.43;;;18.70;44.60;;;;;;5058445;28;20229;-56
2022/04/16 08:30:15;;;;;;;2.73;2.63;;;18.70;44.60;;;;;;5058897;28;20449;-57
2022/04/16 08:32:41;;;;;;;2.30;2.20;;;18.70;44.60;;;;;;5061348;28;20422;-56
2022/04/16 08:35:09;;;;;;;2.47;2.37;;;18.70;44.50;;;;;;5061144;28;20788;-56
2022/04/16 08:37:35;;;;;;;2.40;2.30;;;18.70;44.60;;;;;;5061043;28;20479;-57
2022/04/16 08:40:00;;;;;;;2.60;2.50;;;18.70;44.60;;;;;;5064534;28;20470;-56
2022/04/16 08:42:26;;;;;;;2.30;2.20;;;18.70;44.60;;;;;;5064822;28;20225;-57
2022/04/16 08:44:52;;;;;;;2.30;2.20;;;18.70;44.60;;;;;;5062035;28;20689;-56
2022/04/16 08:47:18;;;;;;;2.60;2.50;;;18.70;44.60;;;;;;5064629;28;20779;-56
2022/04/16 08:49:44;;;;;;;2.43;2.33;;;18.70;44.50;;;;;;5056426;28;20475;-56
2022/04/16 08:52:11;;;;;;;2.60;2.50;;;18.70;44.60;;;;;;5059760;28;20222;-57
2022/04/16 08:54:38;;;;;;;2.50;2.40;;;18.70;44.60;;;;;;5067033;28;20450;-57
2022/04/16 08:57:04;;;;;;;2.47;2.37;;;18.70;44.60;;;;;;5067834;28;21023;-57
2022/04/16 08:59:30;;;;;;;2.47;2.37;;;18.70;44.60;;;;;;5057928;28;20472;-56
2022/04/16 09:01:58;;;;;;;2.80;2.70;;;18.70;44.60;;;;;;5062859;28;20468;-56
2022/04/16 09:04:27;;;;;;;2.30;2.20;;;18.70;44.60;;;;;;5062217;28;20704;-56
2022/04/16 09:06:57;;;;;;;2.57;2.47;;;18.70;44.50;;;;;;5058012;28;20666;-56
2022/04/16 09:09:23;;;;;;;2.67;2.57;;;18.70;44.50;;;;;;5064914;28;20758;-56
2022/04/16 09:11:49;;;;;;;2.50;2.40;;;18.70;44.50;;;;;;5066949;28;20950;-56
2022/04/16 09:14:15;;;;;;;2.43;2.33;;;18.70;44.50;;;;;;5060769;28;20515;-56
2022/04/16 09:16:41;;;;;;;2.23;2.13;;;18.70;44.50;;;;;;5063976;28;20222;-56
2022/04/16 09:19:17;;;;;;;2.50;2.40;;;18.70;44.50;;;;;;5061935;28;20244;-56
2022/04/16 09:21:44;;;;;;;2.53;2.43;;;18.70;44.50;;;;;;5058962;28;20414;-57
2022/04/16 09:24:12;;;;;;;2.60;2.40;;;18.70;44.60;;;;;;5060100;28;20586;-56
2022/04/16 09:26:39;;;;;;;3.00;2.80;;;18.70;44.50;;;;;;5064912;28;22805;-56
2022/04/16 09:29:14;;;;;;;2.60;2.50;;;18.70;44.50;;;;;;5059906;28;20461;-57
2022/04/16 09:31:43;;;;;;;2.70;2.60;;;18.70;44.50;;;;;;5062935;28;20457;-56
2022/04/16 09:34:19;;;;;;;2.10;2.00;;;18.70;44.50;;;;;;5063321;28;20473;-57
2022/04/16 09:36:46;;;;;;;2.00;1.90;;;18.70;44.60;;;;;;5059947;28;20442;-56
2022/04/16 09:39:12;;;;;;;2.40;2.30;;;18.70;44.50;;;;;;5060287;28;20475;-57
2022/04/16 09:41:40;;;;;;;2.20;2.10;;;18.70;44.50;;;;;;5059947;28;21529;-56
2022/04/16 09:44:20;;;;;;;2.47;2.37;;;18.70;44.50;;;;;;5057182;28;20459;-56
2022/04/16 09:46:47;;;;;;;2.37;2.27;;;18.70;44.50;;;;;;5061698;28;20979;-57
2022/04/16 09:49:14;;;;;;;2.50;2.40;;;18.70;44.60;;;;;;5056247;28;20455;-57
2022/04/16 09:51:45;;;;;;;2.37;2.20;;;18.70;44.60;;;;;;5060181;28;20462;-56
2022/04/16 09:54:12;;;;;;;3.00;2.80;;;18.70;44.60;;;;;;5061060;28;20443;-56
2022/04/16 09:56:39;;;;;;;2.20;2.10;;;18.70;44.60;;;;;;5062600;28;20530;-56
2022/04/16 09:59:07;;;;;;;2.47;2.37;;;18.70;44.50;;;;;;5054953;28;20434;-56
2022/04/16 10:01:34;;;;;;;2.43;2.33;;;18.70;44.60;;;;;;5061467;28;20465;-57
2022/04/16 10:04:03;;;;;;;2.23;2.13;;;18.70;44.50;;;;;;5056698;28;20429;-56
2022/04/16 10:06:30;;;;;;;2.43;2.33;;;18.70;44.60;;;;;;5060752;28;20434;-56
2022/04/16 10:09:00;;;;;;;2.13;2.03;;;18.70;44.60;;;;;;5056877;28;20871;-56
2022/04/16 10:12:59;;;;;;;2.23;2.13;;;18.70;44.60;;;;;;5058596;28;20962;-57
2022/04/16 10:14:49;;;;;;;2.40;2.30;;;18.70;44.60;;;;;;5064970;28;20454;-57
2022/04/16 10:17:28;;;;;;;2.80;2.63;;;18.70;44.60;;;;;;5062163;28;20421;-57
2022/04/16 10:20:04;;;;;;;2.63;2.53;;;18.70;44.60;;;;;;5054306;28;20437;-56
2022/04/16 10:22:30;;;;;;;2.40;2.20;;;18.70;44.60;;;;;;5060014;28;20512;-57
2022/04/16 10:24:58;;;;;;;2.20;2.10;;;18.70;44.60;;;;;;5058736;28;20509;-56
2022/04/16 10:27:29;;;;;;;2.30;2.20;;;18.70;44.60;;;;;;5058324;28;20223;-57
2022/04/16 10:30:07;;;;;;;2.43;2.33;;;18.70;44.60;;;;;;5065506;28;20418;-57
2022/04/16 10:32:43;;;;;;;2.10;2.00;;;18.70;44.60;;;;;;5059495;28;20425;-57
2022/04/16 10:35:14;;;;;;;2.20;2.10;;;18.70;44.60;;;;;;5060349;28;20434;-56
2022/04/16 10:37:42;;;;;;;2.30;2.20;;;18.70;44.60;;;;;;5063631;28;20929;-56
2022/04/16 10:40:16;;;;;;;2.27;2.17;;;18.70;44.70;;;;;;5060627;28;20634;-56
2022/04/16 10:43:05;;;;;;;2.30;2.20;;;18.70;44.60;;;;;;5057697;28;20417;-56
2022/04/16 10:45:35;;;;;;;2.30;2.20;;;18.70;44.60;;;;;;5063070;28;20443;-57
2022/04/16 10:48:02;;;;;;;2.40;2.30;;;18.70;44.60;;;;;;5061102;28;20466;-57
2022/04/16 10:50:31;;;;;;;2.67;2.57;;;18.70;44.70;;;;;;5061823;28;20484;-57
2022/04/16 10:53:02;;;;;;;2.20;2.10;;;18.70;44.70;;;;;;5062094;28;20438;-56
2022/04/16 10:55:32;;;;;;;2.50;2.40;;;18.70;44.70;;;;;;5058972;28;20437;-57
2022/04/16 10:58:03;;;;;;;2.30;2.20;;;18.70;44.70;;;;;;5055434;28;20477;-56
2022/04/16 11:01:03;;;;;;;2.40;2.30;;;18.70;44.70;;;;;;5061106;28;20429;-57
2022/04/16 11:03:33;;;;;;;2.27;2.17;;;18.70;44.70;;;;;;5057686;28;20976;-57
2022/04/16 11:06:05;;;;;;;2.50;2.40;;;18.70;44.70;;;;;;5057844;28;20430;-57
2022/04/16 11:08:34;;;;;;;2.47;2.37;;;18.70;44.70;;;;;;5061327;28;20540;-57
2022/04/16 11:11:03;;;;;;;2.33;2.23;;;18.70;44.70;;;;;;5057058;28;20961;-59
2022/04/16 11:13:30;;;;;;;2.37;2.27;;;18.70;45.50;;;;;;5058133;28;20425;-57
2022/04/16 11:15:57;;;;;;;2.90;2.70;;;18.70;44.70;;;;;;5058232;28;20422;-57
2022/04/16 11:18:23;;;;;;;2.60;2.50;;;18.70;44.70;;;;;;5060439;28;20441;-56
2022/04/16 11:20:55;;;;;;;2.43;2.33;;;18.70;44.70;;;;;;5057931;28;20498;-57
2022/04/16 11:23:27;;;;;;;2.57;2.47;;;18.70;44.70;;;;;;5063012;28;20268;-57
2022/04/16 11:34:15;;;;;;;2.77;2.67;;;18.70;44.70;;;;;;5044309;28;20496;-56
2022/04/16 11:36:41;;;;;;;2.60;2.40;;;18.60;44.80;;;;;;5058914;28;20902;-57
2022/04/16 11:39:16;;;;;;;2.60;2.50;;;18.60;44.70;;;;;;5061006;28;20436;-57
2022/04/16 11:41:56;;;;;;;2.37;2.27;;;18.60;44.60;;;;;;5058032;28;20301;-56
2022/04/16 11:44:50;;;;;;;2.67;2.57;;;18.60;44.60;;;;;;5060703;28;20466;-56
2022/04/16 11:47:20;;;;;;;2.50;2.40;;;18.60;44.70;;;;;;5040440;28;20550;-56
2022/04/16 11:49:49;;;;;;;2.50;2.40;;;18.60;44.70;;;;;;5046178;28;20673;-56
2022/04/16 11:52:15;;;;;;;2.67;2.57;;;18.60;44.70;;;;;;5060070;28;20448;-57
2022/04/16 11:54:41;;;;;;;2.90;2.80;;;18.60;45.40;;;;;;5062085;28;20425;-57
2022/04/16 11:57:07;;;;;;;2.83;2.70;;;18.60;44.70;;;;;;5058192;28;20430;-57
2022/04/16 11:59:33;;;;;;;2.37;2.27;;;18.60;44.70;;;;;;5061888;28;20242;-57
2022/04/16 12:02:03;;;;;;;2.27;2.17;;;18.60;44.70;;;;;;5062094;28;20413;-56
2022/04/16 12:04:41;;;;;;;2.53;2.33;;;18.60;45.30;;;;;;5061279;28;20434;-57
2022/04/16 12:07:11;;;;;;;2.70;2.60;;;18.60;44.70;;;;;;5062675;28;20425;-56
2022/04/16 12:09:37;;;;;;;2.50;2.40;;;18.60;44.60;;;;;;5063155;28;20504;-57
2022/04/16 12:12:05;;;;;;;2.60;2.50;;;18.60;44.70;;;;;;5061588;28;20918;-57
2022/04/16 12:14:31;;;;;;;2.67;2.47;;;18.60;44.70;;;;;;5050603;28;20233;-57
2022/04/16 12:16:58;;;;;;;2.63;2.43;;;18.60;44.60;;;;;;5058662;28;20874;-56
2022/04/16 12:19:27;;;;;;;2.70;2.60;;;18.60;44.60;;;;;;5058526;28;20517;-57
2022/04/16 12:21:52;;;;;;;2.87;2.70;;;18.60;44.70;;;;;;5063819;28;20432;-57
2022/04/16 12:24:28;;;;;;;2.53;2.43;;;18.60;44.60;;;;;;5066835;28;20447;-58
2022/04/16 12:26:57;;;;;;;2.57;2.47;;;18.60;44.70;;;;;;5061733;28;20221;-57
2022/04/16 12:29:28;;;;;;;2.57;2.37;;;18.60;44.70;;;;;;5064825;28;20455;-57
2022/04/16 12:31:58;;;;;;;2.60;2.50;;;18.60;44.70;;;;;;5064526;28;20433;-57
2022/04/16 12:34:24;;;;;;;2.90;2.70;;;18.60;44.70;;;;;;5055948;28;21096;-56
2022/04/16 12:36:50;;;;;;;3.00;2.80;;;18.60;44.70;;;;;;5065453;28;20432;-56
2022/04/16 12:39:16;;;;;;;2.70;2.60;;;18.60;44.70;;;;;;5063019;28;20805;-56
2022/04/16 12:41:41;;;;;;;2.30;2.20;;;18.60;44.70;;;;;;5063312;28;20305;-56
2022/04/16 12:44:07;;;;;;;3.10;2.90;;;18.60;44.70;;;;;;5064208;28;20642;-57
2022/04/16 12:46:32;;;;;;;2.60;2.50;;;18.60;44.70;;;;;;5067579;28;20662;-57
2022/04/16 12:48:58;;;;;;;3.20;3.00;;;18.60;44.70;;;;;;5057336;28;20217;-56
2022/04/16 12:51:24;;;;;;;3.37;3.17;;;18.60;44.70;;;;;;5060390;28;20226;-57
2022/04/16 12:53:50;;;;;;;3.10;2.90;;;18.60;44.80;;;;;;5063932;28;20671;-57
2022/04/16 12:56:16;;;;;;;3.00;2.87;;;18.60;44.70;;;;;;5056085;28;20442;-56
2022/04/16 12:58:41;;;;;;;3.50;3.30;;;18.60;44.70;;;;;;5063594;28;20667;-56
2022/04/16 13:01:07;;;;;;;3.00;2.80;;;18.60;44.70;;;;;;5048378;28;20222;-56
2022/04/16 13:03:33;;;;;;;2.97;2.87;;;18.60;44.70;;;;;;5061102;28;20221;-56
2022/04/16 13:05:58;;;;;;;2.70;2.60;;;18.60;44.70;;;;;;5059579;28;20217;-57
2022/04/16 13:08:24;;;;;;;2.97;2.77;;;18.60;44.70;;;;;;5066491;28;20226;-57
2022/04/16 13:10:51;;;;;;;2.90;2.70;;;18.60;44.70;;;;;;5062467;28;20326;-57
2022/04/16 13:13:17;;;;;;;2.97;2.77;;;18.60;44.70;;;;;;5061061;28;21164;-57